createdAt,value
2022-09-10T00:01:06.277Z,99914.13
2022-09-10T00:03:32.880Z,99917.28
2022-09-10T00:05:59.447Z,99911.56
2022-09-10T00:08:26.451Z,99911.22
2022-09-10T00:10:53.077Z,99907.31
2022-09-10T00:13:21.922Z,99912.50
2022-09-10T00:15:51.205Z,99912.03
2022-09-10T00:18:19.627Z,99921.16
2022-09-10T00:20:51.295Z,99913.44
2022-09-10T00:23:20.147Z,99917.88
2022-09-10T00:25:50.844Z,99918.09
2022-09-10T00:28:21.718Z,99921.25
2022-09-10T00:30:50.093Z,99914.75
2022-09-10T00:33:18.278Z,99917.44
2022-09-10T00:35:47.528Z,99917.75
2022-09-10T00:38:15.084Z,99913.28
2022-09-10T00:40:44.526Z,99917.88
2022-09-10T00:43:16.766Z,99921.03
2022-09-10T00:45:44.477Z,99927.38
2022-09-10T00:48:28.594Z,99925.97
2022-09-10T00:50:55.429Z,99930.28
2022-09-10T00:53:24.457Z,99929.22
2022-09-10T00:55:53.903Z,99936.88
2022-09-10T00:58:22.727Z,99939.56
2022-09-10T01:00:51.356Z,99930.44
2022-09-10T01:03:22.421Z,99936.16
2022-09-10T01:05:51.600Z,99936.50
2022-09-10T01:08:20.681Z,99936.84
2022-09-10T01:11:16.887Z,99935.19
2022-09-10T01:13:55.925Z,99933.56
2022-09-10T01:16:40.439Z,99929.91
2022-09-10T01:19:13.043Z,99933.09
2022-09-10T01:22:17.307Z,99943.97
2022-09-10T01:24:54.489Z,99944.81
2022-09-10T01:27:35.582Z,99945.50
2022-09-10T01:30:10.275Z,99946.34
2022-09-10T01:32:56.311Z,99938.94
2022-09-10T01:35:40.263Z,99938.84
2022-09-10T01:38:19.036Z,99937.31
2022-09-10T01:40:46.544Z,99940.25
2022-09-10T01:43:17.187Z,99940.94
2022-09-10T01:45:54.608Z,99940.00
2022-09-10T01:48:59.890Z,99932.59
2022-09-10T01:51:40.616Z,99933.56
2022-09-10T01:54:26.327Z,99924.63
2022-09-10T01:56:59.591Z,99933.91
2022-09-10T02:00:10.375Z,99935.31
2022-09-10T02:03:01.881Z,99927.22
2022-09-10T02:05:35.195Z,99938.69
2022-09-10T02:08:08.978Z,99933.19
2022-09-10T02:10:49.526Z,99924.03
2022-09-10T02:13:16.252Z,99934.44
2022-09-10T02:15:56.683Z,99921.81
2022-09-10T02:18:26.361Z,99934.22
2022-09-10T02:20:55.993Z,99929.22
2022-09-10T02:23:27.351Z,99931.06
2022-09-10T02:25:54.149Z,99932.00
2022-09-10T02:28:26.795Z,99934.59
2022-09-10T02:30:55.879Z,99942.31
2022-09-10T02:33:22.541Z,99934.97
2022-09-10T02:35:49.953Z,99934.97
2022-09-10T02:38:18.122Z,99943.53
2022-09-10T02:40:49.699Z,99938.72
2022-09-10T02:43:17.375Z,99941.63
2022-09-10T02:45:44.666Z,99948.34
2022-09-10T02:48:11.429Z,99939.78
2022-09-10T02:50:39.006Z,99936.16
2022-09-10T02:53:06.914Z,99942.69
2022-09-10T02:55:33.505Z,99938.38
2022-09-10T02:58:00.102Z,99935.66
2022-09-10T03:00:26.659Z,99942.13
2022-09-10T03:03:00.871Z,99939.41
2022-09-10T03:05:29.555Z,99938.72
2022-09-10T03:07:57.369Z,99945.19
2022-09-10T03:10:24.452Z,99944.13
2022-09-10T03:12:51.044Z,99945.66
2022-09-10T03:15:20.524Z,99938.63
2022-09-10T03:17:48.089Z,99941.53
2022-09-10T03:20:15.039Z,99942.00
2022-09-10T03:22:41.611Z,99942.69
2022-09-10T03:25:11.679Z,99946.44
2022-09-10T03:27:38.563Z,99939.63
2022-09-10T03:30:08.273Z,99943.38
2022-09-10T03:32:35.015Z,99945.50
2022-09-10T03:35:01.639Z,99944.38
2022-09-10T03:37:28.512Z,99942.59
2022-09-10T03:39:59.648Z,99937.41
2022-09-10T03:42:31.163Z,99940.22
2022-09-10T03:44:58.201Z,99942.91
2022-09-10T03:47:25.143Z,99946.09
2022-09-10T03:49:54.036Z,99938.72
2022-09-10T03:52:22.891Z,99938.13
2022-09-10T03:54:51.089Z,99933.44
2022-09-10T03:57:17.864Z,99937.66
2022-09-10T03:59:46.800Z,99935.44
2022-09-10T04:02:14.609Z,99940.44
2022-09-10T04:04:41.440Z,99946.19
2022-09-10T04:07:10.443Z,99949.13
2022-09-10T04:09:37.209Z,99947.72
2022-09-10T04:12:04.028Z,99943.97
2022-09-10T04:14:32.573Z,99946.66
2022-09-10T04:17:00.829Z,99940.81
2022-09-10T04:19:30.373Z,99946.53
2022-09-10T04:21:59.131Z,99944.44
2022-09-10T04:24:25.829Z,99945.97
2022-09-10T04:26:52.529Z,99955.47
2022-09-10T04:29:19.170Z,99955.72
2022-09-10T04:31:46.812Z,99954.63
2022-09-10T04:34:16.420Z,99955.47
2022-09-10T04:36:43.196Z,99962.59
2022-09-10T04:39:10.069Z,99957.91
2022-09-10T04:41:38.980Z,99966.59
2022-09-10T04:44:06.929Z,99964.34
2022-09-10T04:46:35.063Z,99962.94
2022-09-10T04:49:03.345Z,99965.16
2022-09-10T04:51:31.283Z,99970.09
2022-09-10T04:53:59.376Z,99973.38
2022-09-10T04:56:30.914Z,99980.97
2022-09-10T04:58:58.433Z,99983.09
2022-09-10T05:01:26.349Z,99980.16
2022-09-10T05:03:53.534Z,99986.16
2022-09-10T05:06:23.324Z,99983.44
2022-09-10T05:08:50.697Z,99984.63
2022-09-10T05:11:19.637Z,99984.03
2022-09-10T05:13:46.498Z,99986.34
2022-09-10T05:16:16.768Z,99995.63
2022-09-10T05:18:44.396Z,99988.84
2022-09-10T05:21:11.231Z,99994.00
2022-09-10T05:23:40.589Z,99985.56
2022-09-10T05:26:08.409Z,99992.13
2022-09-10T05:28:37.470Z,99984.88
2022-09-10T05:31:07.225Z,99993.31
2022-09-10T05:33:34.507Z,99986.97
2022-09-10T05:36:01.164Z,99988.38
2022-09-10T05:38:28.607Z,99983.09
2022-09-10T05:40:57.777Z,99983.09
2022-09-10T05:43:24.398Z,99986.50
2022-09-10T05:45:52.297Z,99988.81
2022-09-10T05:48:35.990Z,99987.97
2022-09-10T05:51:06.288Z,99991.81
2022-09-10T05:53:41.703Z,99988.75
2022-09-10T05:56:08.638Z,99982.97
2022-09-10T05:58:36.614Z,99988.72
2022-09-10T06:01:11.203Z,99982.38
2022-09-10T06:03:40.422Z,99979.47
2022-09-10T06:06:07.701Z,99973.03
2022-09-10T06:08:37.258Z,99977.19
2022-09-10T06:11:20.510Z,99956.63
2022-09-10T06:13:49.895Z,99941.97
2022-09-10T06:16:18.207Z,99924.22
2022-09-10T06:18:45.289Z,99896.50
2022-09-10T06:21:17.312Z,99889.56
2022-09-10T06:23:46.401Z,99887.06
2022-09-10T06:26:18.504Z,99880.78
2022-09-10T06:28:46.658Z,99882.91
2022-09-10T06:31:20.138Z,99881.31
2022-09-10T06:33:49.603Z,99890.34
2022-09-10T06:36:19.982Z,99894.16
2022-09-10T06:38:49.535Z,99886.38
2022-09-10T06:41:17.224Z,99887.09
2022-09-10T06:44:06.753Z,99888.56
2022-09-10T06:47:30.507Z,99894.97
2022-09-10T06:49:25.092Z,99901.06
2022-09-10T06:51:52.280Z,99906.16
2022-09-10T06:54:19.086Z,99904.13
2022-09-10T06:56:48.788Z,99912.75
2022-09-10T06:59:16.987Z,99908.88
2022-09-10T07:01:47.528Z,99904.63
2022-09-10T07:04:20.391Z,99901.59
2022-09-10T07:06:48.606Z,99901.31
2022-09-10T07:09:16.329Z,99892.53
2022-09-10T07:11:51.925Z,99889.75
2022-09-10T07:14:19.377Z,99895.19
2022-09-10T07:16:47.489Z,99891.41
2022-09-10T07:19:21.794Z,99889.16
2022-09-10T07:21:50.100Z,99888.25
2022-09-10T07:24:17.127Z,99891.50
2022-09-10T07:26:59.395Z,99892.81
2022-09-10T07:29:26.534Z,99905.00
2022-09-10T07:31:53.981Z,99895.06
2022-09-10T07:34:26.387Z,99899.06
2022-09-10T07:36:53.253Z,99902.56
2022-09-10T07:39:25.784Z,99906.25
2022-09-10T07:42:02.646Z,99898.38
2022-09-10T07:44:41.028Z,99897.94
2022-09-10T07:47:07.628Z,99896.88
2022-09-10T07:49:34.597Z,99901.81
2022-09-10T07:52:03.628Z,99903.69
2022-09-10T07:54:36.829Z,99902.50
2022-09-10T07:57:05.174Z,99906.78
2022-09-10T07:59:32.838Z,99911.66
2022-09-10T08:02:02.107Z,99912.75
2022-09-10T08:04:42.005Z,99913.28
2022-09-10T08:07:11.161Z,99916.00
2022-09-10T08:09:40.271Z,99918.22
2022-09-10T08:12:09.543Z,99923.13
2022-09-10T08:14:38.933Z,99929.03
2022-09-10T08:17:06.057Z,99923.00
2022-09-10T08:19:37.782Z,99930.38
2022-09-10T08:22:04.420Z,99927.25
2022-09-10T08:24:37.781Z,99926.72
2022-09-10T08:27:04.603Z,99927.25
2022-09-10T08:29:31.772Z,99926.16
2022-09-10T08:31:59.485Z,99922.25
2022-09-10T08:34:30.825Z,99927.13
2022-09-10T08:37:05.076Z,99939.72
2022-09-10T08:39:36.798Z,99927.25
2022-09-10T08:42:21.967Z,99935.88
2022-09-10T08:44:53.984Z,99926.72
2022-09-10T08:47:31.167Z,99934.19
2022-09-10T08:50:11.972Z,99928.56
2022-09-10T08:53:12.979Z,99944.44
2022-09-10T08:55:48.710Z,99938.19
2022-09-10T08:58:22.802Z,99946.53
2022-09-10T09:00:57.140Z,99944.03
2022-09-10T09:03:42.985Z,99951.19
2022-09-10T09:06:41.189Z,99952.50
2022-09-10T09:09:14.799Z,99963.81
2022-09-10T09:12:15.610Z,99982.69
2022-09-10T09:14:45.806Z,99972.19
2022-09-10T09:17:22.320Z,99974.84
2022-09-10T09:20:10.611Z,99978.31
2022-09-10T09:22:52.496Z,99987.22
2022-09-10T09:25:30.272Z,99988.66
2022-09-10T09:27:57.603Z,99981.38
2022-09-10T09:30:42.105Z,99971.94
2022-09-10T09:33:22.678Z,99971.47
2022-09-10T09:36:17.513Z,99970.50
2022-09-10T09:38:48.362Z,99964.09
2022-09-10T09:41:23.880Z,99960.47
2022-09-10T09:43:58.916Z,99965.03
2022-09-10T09:46:26.410Z,99961.94
2022-09-10T09:49:01.931Z,99972.69
2022-09-10T09:51:35.717Z,99961.91
2022-09-10T09:56:58.159Z,99958.63
2022-09-10T09:59:34.766Z,99960.75
2022-09-10T10:02:10.563Z,99953.22
2022-09-10T10:04:41.980Z,99954.56
2022-09-10T10:07:09.014Z,99952.66
2022-09-10T10:09:42.406Z,99947.03
2022-09-10T10:12:19.088Z,99945.16
2022-09-10T10:14:45.846Z,99954.25
2022-09-10T10:17:31.346Z,99950.56
2022-09-10T10:20:00.927Z,99950.03
2022-09-10T10:22:30.322Z,99951.34
2022-09-10T10:24:56.979Z,99950.97
2022-09-10T10:27:35.916Z,99944.19
2022-09-10T10:30:11.394Z,99939.94
2022-09-10T10:32:46.454Z,99948.69
2022-09-10T10:35:33.546Z,99944.09
2022-09-10T10:38:27.440Z,99951.84
2022-09-10T10:41:12.789Z,99932.88
2022-09-10T10:43:45.372Z,99934.81
2022-09-10T10:46:21.247Z,99929.06
2022-09-10T10:49:16.418Z,99938.81
2022-09-10T10:51:55.410Z,99931.78
2022-09-10T10:54:28.520Z,99934.97
2022-09-10T10:57:20.110Z,99940.31
2022-09-10T11:00:01.187Z,99934.75
2022-09-10T11:02:44.543Z,99939.56
2022-09-10T11:05:31.751Z,99950.69
2022-09-10T11:08:19.974Z,99954.13
2022-09-10T11:10:50.739Z,99943.63
2022-09-10T11:13:27.220Z,99936.09
2022-09-10T11:16:02.685Z,99935.06
2022-09-10T11:19:03.093Z,99930.19
2022-09-10T11:21:51.702Z,99924.97
2022-09-10T11:24:41.460Z,99929.88
2022-09-10T11:27:35.964Z,99921.75
2022-09-10T11:30:10.077Z,99904.13
2022-09-10T11:33:01.263Z,99910.63
2022-09-10T11:35:44.580Z,99913.91
2022-09-10T11:38:36.282Z,99905.78
2022-09-10T11:41:14.789Z,99901.91
2022-09-10T11:44:36.229Z,99895.38
2022-09-10T11:47:36.751Z,99898.56
2022-09-10T11:50:07.019Z,99891.22
2022-09-10T11:52:36.204Z,99885.53
2022-09-10T11:55:08.416Z,99893.13
2022-09-10T11:58:00.297Z,99892.34
2022-09-10T12:00:29.010Z,99887.50
2022-09-10T12:03:09.394Z,99896.16
2022-09-10T12:05:57.845Z,99895.91
2022-09-10T12:08:51.225Z,99895.94
2022-09-10T12:11:47.868Z,99900.78
2022-09-10T12:14:17.378Z,99895.34
2022-09-10T12:16:45.362Z,99893.47
2022-09-10T12:19:29.279Z,99901.63
2022-09-10T12:22:01.214Z,99903.25
2022-09-10T12:24:37.043Z,99901.13
2022-09-10T12:27:05.545Z,99900.56
2022-09-10T12:29:40.657Z,99908.19
2022-09-10T12:32:19.331Z,99903.81
2022-09-10T12:34:49.765Z,99899.16
2022-09-10T12:37:25.694Z,99900.72
2022-09-10T12:40:26.516Z,99897.75
2022-09-10T12:42:59.264Z,99899.06
2022-09-10T12:46:00.866Z,99890.84
2022-09-10T12:48:27.704Z,99893.63
2022-09-10T12:50:57.945Z,99899.94
2022-09-10T12:53:39.635Z,99894.75
2022-09-10T12:56:18.213Z,99883.75
2022-09-10T12:58:54.260Z,99886.22
2022-09-10T13:01:31.771Z,99887.81
2022-09-10T13:04:00.367Z,99885.75
2022-09-10T13:06:40.769Z,99882.38
2022-09-10T13:09:27.821Z,99878.00
2022-09-10T13:11:57.070Z,99885.47
2022-09-10T13:14:29.033Z,99882.22
2022-09-10T13:16:55.846Z,99891.50
2022-09-10T13:19:23.525Z,99885.81
2022-09-10T13:21:52.145Z,99886.88
2022-09-10T13:24:34.399Z,99883.28
2022-09-10T13:27:04.133Z,99876.97
2022-09-10T13:29:35.010Z,99888.38
2022-09-10T13:32:24.810Z,99887.06
2022-09-10T13:35:19.660Z,99898.03
2022-09-10T13:37:58.723Z,99895.38
2022-09-10T13:40:53.218Z,99896.56
2022-09-10T13:44:00.963Z,99901.09
2022-09-10T13:46:36.973Z,99895.13
2022-09-10T13:49:03.509Z,99900.56
2022-09-10T13:51:48.223Z,99903.25
2022-09-10T13:54:33.187Z,99901.31
2022-09-10T13:57:22.731Z,99902.44
2022-09-10T13:59:51.777Z,99909.53
2022-09-10T14:02:21.407Z,99910.31
2022-09-10T14:04:48.202Z,99905.22
2022-09-10T14:07:23.347Z,99897.59
2022-09-10T14:09:53.307Z,99901.16
2022-09-10T14:12:21.469Z,99914.44
2022-09-10T14:14:54.924Z,99904.13
2022-09-10T14:17:25.742Z,99908.47
2022-09-10T14:20:01.474Z,99911.72
2022-09-10T14:22:29.047Z,99921.75
2022-09-10T14:25:04.847Z,99919.88
2022-09-10T14:27:49.025Z,99914.66
2022-09-10T14:30:18.335Z,99920.63
2022-09-10T14:32:46.218Z,99914.97
2022-09-10T14:35:34.619Z,99915.75
2022-09-10T14:38:09.138Z,99912.47
2022-09-10T14:40:37.092Z,99912.72
2022-09-10T14:43:30.198Z,99913.28
2022-09-10T14:45:57.140Z,99917.94
2022-09-10T14:48:27.979Z,99914.69
2022-09-10T14:51:11.002Z,99914.94
2022-09-10T14:53:38.314Z,99911.91
2022-09-10T14:56:06.533Z,99921.16
2022-09-10T14:58:36.253Z,99910.59
2022-09-10T15:01:03.650Z,99907.91
2022-09-10T15:03:30.312Z,99909.25
2022-09-10T15:05:56.891Z,99913.56
2022-09-10T15:08:23.447Z,99911.06
2022-09-10T15:10:58.458Z,99911.09
2022-09-10T15:13:25.145Z,99906.75
2022-09-10T15:15:53.727Z,99908.13
2022-09-10T15:18:22.702Z,99900.81
2022-09-10T15:20:50.497Z,99907.28
2022-09-10T15:23:20.652Z,99911.91
2022-09-10T15:25:52.564Z,99907.56
2022-09-10T15:28:21.653Z,99910.81
2022-09-10T15:30:49.455Z,99912.78
2022-09-10T15:33:16.117Z,99927.44
2022-09-10T15:35:42.728Z,99926.91
2022-09-10T15:38:13.145Z,99931.81
2022-09-10T15:40:39.743Z,99931.03
2022-09-10T15:43:06.641Z,99931.53
2022-09-10T15:45:39.880Z,99923.97
2022-09-10T15:48:07.189Z,99920.69
2022-09-10T15:50:33.761Z,99915.81
2022-09-10T15:53:00.472Z,99906.84
2022-09-10T15:55:27.678Z,99909.00
2022-09-10T15:57:54.418Z,99916.91
2022-09-10T16:00:21.122Z,99922.03
2022-09-10T16:02:53.025Z,99938.09
2022-09-10T16:05:21.079Z,99931.81
2022-09-10T16:07:49.817Z,99936.66
2022-09-10T16:10:19.062Z,99940.72
2022-09-10T16:12:45.619Z,99950.47
2022-09-10T16:15:12.279Z,99955.59
2022-09-10T16:17:38.847Z,99956.38
2022-09-10T16:20:05.812Z,99966.88
2022-09-10T16:22:35.428Z,99968.69
2022-09-10T16:25:02.132Z,99978.25
2022-09-10T16:27:29.560Z,99982.75
2022-09-10T16:29:56.246Z,99982.75
2022-09-10T16:32:22.902Z,99992.72
2022-09-10T16:34:49.468Z,99993.28
2022-09-10T16:37:17.373Z,99995.72
2022-09-10T16:39:44.042Z,99989.72
2022-09-10T16:42:10.819Z,99994.31
2022-09-10T16:44:37.580Z,100005.66
2022-09-10T16:47:04.216Z,100005.06
2022-09-10T16:49:32.425Z,100005.06
2022-09-10T16:51:59.407Z,100010.50
2022-09-10T16:54:26.594Z,100011.53
2022-09-10T16:56:53.838Z,100009.81
2022-09-10T16:59:22.585Z,100011.53
2022-09-10T17:01:49.993Z,100010.25
2022-09-10T17:04:22.363Z,100004.91
2022-09-10T17:06:51.419Z,100009.72
2022-09-10T17:09:18.054Z,100016.88
2022-09-10T17:11:46.927Z,100019.47
2022-09-10T17:14:13.523Z,100024.84
2022-09-10T17:16:41.432Z,100028.09
2022-09-10T17:19:14.522Z,100025.16
2022-09-10T17:21:47.326Z,100022.63
2022-09-10T17:24:14.247Z,100026.81
2022-09-10T17:26:41.404Z,100026.19
2022-09-10T17:29:10.376Z,100036.09
2022-09-10T17:31:37.188Z,100038.50
2022-09-10T17:34:04.191Z,100034.69
2022-09-10T17:36:31.130Z,100043.78
2022-09-10T17:38:59.212Z,100043.28
2022-09-10T17:41:29.524Z,100039.63
2022-09-10T17:43:58.183Z,100047.31
2022-09-10T17:46:24.901Z,100054.53
2022-09-10T17:48:51.782Z,100053.31
2022-09-10T17:51:21.480Z,100052.75
2022-09-10T17:53:48.472Z,100061.94
2022-09-10T17:56:19.001Z,100059.38
2022-09-10T17:58:47.216Z,100068.75
2022-09-10T18:01:34.631Z,100064.00
2022-09-10T18:04:01.559Z,100072.00
2022-09-10T18:06:29.151Z,100080.84
2022-09-10T18:09:00.581Z,100088.63
2022-09-10T18:11:30.135Z,100089.69
2022-09-10T18:13:57.782Z,100091.34
2022-09-10T18:16:27.114Z,100101.00
2022-09-10T18:19:15.893Z,100108.50
2022-09-10T18:21:44.878Z,100104.97
2022-09-10T18:24:16.861Z,100112.19
2022-09-10T18:26:45.438Z,100115.38
2022-09-10T18:29:11.910Z,100116.19
2022-09-10T18:31:40.677Z,100123.13
2022-09-10T18:34:11.453Z,100127.97
2022-09-10T18:36:38.082Z,100136.06
2022-09-10T18:39:06.882Z,100126.81
2022-09-10T18:41:37.981Z,100127.78
2022-09-10T18:44:07.983Z,100134.47
2022-09-10T18:46:35.619Z,100136.59
2022-09-10T18:49:02.667Z,100135.78
2022-09-10T18:51:30.652Z,100139.53
2022-09-10T18:54:01.735Z,100141.19
2022-09-10T18:56:31.042Z,100143.03
2022-09-10T18:59:04.901Z,100145.41
2022-09-10T19:01:32.425Z,100148.59
2022-09-10T19:03:59.088Z,100155.63
2022-09-10T19:06:28.822Z,100157.75
2022-09-10T19:09:01.280Z,100156.34
2022-09-10T19:11:34.258Z,100157.66
2022-09-10T19:14:04.642Z,100164.91
2022-09-10T19:16:33.156Z,100163.88
2022-09-10T19:19:02.502Z,100164.13
2022-09-10T19:21:32.853Z,100163.53
2022-09-10T19:24:00.741Z,100168.94
2022-09-10T19:26:34.909Z,100170.69
2022-09-10T19:29:02.376Z,100182.06
2022-09-10T19:31:31.375Z,100184.03
2022-09-10T19:34:00.785Z,100185.44
2022-09-10T19:36:28.330Z,100193.28
2022-09-10T19:38:55.129Z,100194.81
2022-09-10T19:41:22.439Z,100188.34
2022-09-10T19:43:50.865Z,100187.06
2022-09-10T19:46:19.210Z,100186.25
2022-09-10T19:48:53.094Z,100194.13
2022-09-10T19:51:22.539Z,100195.97
2022-09-10T19:53:51.942Z,100193.06
2022-09-10T19:56:24.284Z,100198.78
2022-09-10T19:58:52.146Z,100197.59
2022-09-10T20:01:21.382Z,100202.75
2022-09-10T20:03:50.489Z,100219.88
2022-09-10T20:06:18.969Z,100223.25
2022-09-10T20:08:50.532Z,100227.69
2022-09-10T20:11:30.076Z,100226.53
2022-09-10T20:14:09.775Z,100218.81
2022-09-10T20:16:42.455Z,100219.22
2022-09-10T20:19:10.935Z,100223.84
2022-09-10T20:21:38.283Z,100221.94
2022-09-10T20:24:07.128Z,100226.28
2022-09-10T20:26:38.131Z,100229.00
2022-09-10T20:29:11.502Z,100242.59
2022-09-10T20:31:41.304Z,100244.72
2022-09-10T20:34:12.169Z,100249.53
2022-09-10T20:36:42.306Z,100249.75
2022-09-10T20:39:11.368Z,100252.56
2022-09-10T20:41:40.002Z,100256.56
2022-09-10T20:44:07.760Z,100265.91
2022-09-10T20:46:35.014Z,100265.91
2022-09-10T20:49:05.713Z,100269.16
2022-09-10T20:51:34.788Z,100272.06
2022-09-10T20:54:03.256Z,100280.09
2022-09-10T20:56:31.472Z,100281.59
2022-09-10T20:59:02.095Z,100292.00
2022-09-10T21:01:33.500Z,100292.31
2022-09-10T21:04:01.622Z,100290.91
2022-09-10T21:06:31.182Z,100290.31
2022-09-10T21:08:59.423Z,100291.41
2022-09-10T21:11:29.383Z,100294.78
2022-09-10T21:13:58.232Z,100294.88
2022-09-10T21:16:41.489Z,100300.25
2022-09-10T21:19:15.278Z,100303.00
2022-09-10T21:21:48.983Z,100312.22
2022-09-10T21:24:20.214Z,100309.97
2022-09-10T21:26:47.553Z,100317.66
2022-09-10T21:29:16.999Z,100311.94
2022-09-10T21:31:45.221Z,100303.47
2022-09-10T21:34:12.564Z,100307.44
2022-09-10T21:36:41.230Z,100308.25
2022-09-10T21:39:12.492Z,100304.34
2022-09-10T21:41:49.838Z,100311.63
2022-09-10T21:44:21.957Z,100306.84
2022-09-10T21:46:52.385Z,100314.31
2022-09-10T21:49:22.839Z,100318.25
2022-09-10T21:51:50.191Z,100320.50
2022-09-10T21:54:20.640Z,100318.50
2022-09-10T21:56:51.572Z,100319.94
2022-09-10T21:59:18.658Z,100325.88
2022-09-10T22:01:48.848Z,100337.50
2022-09-10T22:04:22.571Z,100335.59
2022-09-10T22:06:49.893Z,100347.56
2022-09-10T22:09:20.751Z,100353.41
2022-09-10T22:11:51.262Z,100350.72
2022-09-10T22:14:20.938Z,100368.13
2022-09-10T22:16:48.162Z,100372.31
2022-09-10T22:19:18.894Z,100367.94
2022-09-10T22:21:46.291Z,100369.00
2022-09-10T22:24:14.657Z,100379.59
2022-09-10T22:26:47.404Z,100389.13
2022-09-10T22:29:21.782Z,100390.53
2022-09-10T22:31:49.509Z,100385.88
2022-09-10T22:34:19.814Z,100400.34
2022-09-10T22:36:47.562Z,100397.31
2022-09-10T22:39:23.472Z,100394.00
2022-09-10T22:41:51.290Z,100405.81
2022-09-10T22:44:19.352Z,100400.59
2022-09-10T22:46:46.338Z,100408.06
2022-09-10T22:49:15.947Z,100406.84
2022-09-10T22:51:43.441Z,100413.38
2022-09-10T22:54:10.806Z,100408.84
2022-09-10T22:56:37.768Z,100407.56
2022-09-10T22:59:04.746Z,100412.69
2022-09-10T23:01:54.924Z,100424.88
2022-09-10T23:04:24.306Z,100425.25
2022-09-10T23:06:53.676Z,100426.91
2022-09-10T23:09:20.353Z,100434.09
2022-09-10T23:11:47.044Z,100435.91
2022-09-10T23:14:23.821Z,100435.47
2022-09-10T23:16:51.835Z,100437.91
2022-09-10T23:19:23.192Z,100441.00
2022-09-10T23:21:54.470Z,100449.41
2022-09-10T23:24:24.258Z,100455.25
2022-09-10T23:26:51.212Z,100451.53
2022-09-10T23:29:19.202Z,100451.53
2022-09-10T23:31:48.297Z,100444.34
2022-09-10T23:34:20.057Z,100453.88
2022-09-10T23:36:51.797Z,100459.31
2022-09-10T23:39:20.805Z,100455.13
2022-09-10T23:41:59.860Z,100460.91
2022-09-10T23:44:26.893Z,100461.94
2022-09-10T23:47:13.148Z,100462.59
2022-09-10T23:49:39.763Z,100464.84
2022-09-10T23:52:08.830Z,100463.16
2022-09-10T23:54:38.887Z,100457.97
2022-09-10T23:57:05.579Z,100469.13
2022-09-10T23:59:32.186Z,100474.69
